Time,TemperatureF,DewpointF,PressureIn,WindDirection,WindDirectionDegrees,WindSpeedMPH,WindSpeedGustMPH,Humidity,HourlyPrecipIn,Conditions,Clouds,dailyrainin,SolarRadiationWatts/m^2,SoftwareType,DateUTC
2013-08-01 00:01:00,69.1,64.7,30.06,WNW,298,0.0,0.0,86,0.00,SCT,,0.00,0.0,WeatherDisplay:10.37,2013-08-01 05:01:00,
2013-08-01 00:06:00,69.0,64.6,30.06,WNW,298,0.0,0.0,86,0.00,SCT,,0.00,0.0,WeatherDisplay:10.37,2013-08-01 05:06:00,
2013-08-01 00:11:00,68.8,64.4,30.06,WNW,298,0.0,0.0,86,0.00,SCT,,0.00,0.0,WeatherDisplay:10.37,2013-08-01 05:11:00,
2013-08-01 00:16:00,68.3,64.3,30.06,WNW,298,0.0,0.0,87,0.00,SCT,,0.00,0.0,WeatherDisplay:10.37,2013-08-01 05:16:00,
2013-08-01 00:22:00,68.1,64.4,30.06,WNW,298,0.0,0.0,88,0.00,SCT,,0.00,0.0,WeatherDisplay:10.37,2013-08-01 05:22:00,
2013-08-01 00:27:00,67.8,64.1,30.06,WNW,298,0.0,0.0,88,0.00,SCT,,0.00,0.0,WeatherDisplay:10.37,2013-08-01 05:27:00,
2013-08-01 00:32:00,67.7,64.1,30.06,WNW,298,0.0,0.0,88,0.00,SCT,SCT,0.00,0.0,WeatherDisplay:10.37,2013-08-01 05:32:00,
2013-08-01 00:37:00,67.4,64.0,30.06,WNW,298,0.0,0.0,89,0.00,SCT,,0.00,0.0,WeatherDisplay:10.37,2013-08-01 05:37:00,
2013-08-01 00:42:00,67.2,63.8,30.06,WNW,298,0.0,0.0,89,0.00,SCT,,0.00,0.0,WeatherDisplay:10.37,2013-08-01 05:42:00,
2013-08-01 00:47:00,67.0,64.0,30.06,WNW,298,0.0,0.0,90,0.00,SCT,,0.00,0.0,WeatherDisplay:10.37,2013-08-01 05:47:00,
2013-08-01 00:53:00,66.7,63.7,30.06,WNW,298,0.0,0.0,90,0.00,SCT,,0.00,0.0,WeatherDisplay:10.37,2013-08-01 05:53:00,
2013-08-01 00:58:00,66.7,64.0,30.06,WNW,298,0.0,0.0,91,0.00,SCT,,0.00,0.0,WeatherDisplay:10.37,2013-08-01 05:58:00,
2013-08-01 01:03:00,66.5,63.8,30.07,WNW,298,0.0,0.0,91,0.00,FEW,,0.00,0.0,WeatherDisplay:10.37,2013-08-01 06:03:00,
2013-08-01 01:08:00,66.3,63.9,30.06,WNW,298,0.0,0.0,92,0.00,FEW,,0.00,0.0,WeatherDisplay:10.37,2013-08-01 06:08:00,
2013-08-01 01:14:00,66.2,63.8,30.06,WNW,298,0.0,0.0,92,0.00,FEW,,0.00,0.0,WeatherDisplay:10.37,2013-08-01 06:14:00,
2013-08-01 01:19:00,66.1,63.7,30.06,WNW,298,0.0,0.0,92,0.00,FEW,,0.00,0.0,WeatherDisplay:10.37,2013-08-01 06:19:00,
2013-08-01 01:24:00,66.1,63.7,30.06,WNW,298,0.0,0.0,92,0.00,FEW,,0.00,0.0,WeatherDisplay:10.37,2013-08-01 06:24:00,
2013-08-01 01:29:00,65.9,63.5,30.06,WNW,298,0.0,0.0,92,0.00,FEW,,0.00,0.0,WeatherDisplay:10.37,2013-08-01 06:29:00,
2013-08-01 01:35:00,66.0,63.6,30.06,WNW,298,0.0,0.0,92,0.00,FEW,,0.00,0.0,WeatherDisplay:10.37,2013-08-01 06:35:00,
2013-08-01 01:40:00,66.1,63.7,30.05,WNW,298,0.0,0.0,92,0.00,FEW,,0.00,0.0,WeatherDisplay:10.37,2013-08-01 06:40:00,
2013-08-01 01:45:00,65.9,63.5,30.05,WNW,298,0.0,0.0,92,0.00,FEW,,0.00,0.0,WeatherDisplay:10.37,2013-08-01 06:45:00,
2013-08-01 01:50:00,65.9,63.8,30.05,WNW,298,0.0,0.0,93,0.00,FEW,,0.00,0.0,WeatherDisplay:10.37,2013-08-01 06:50:00,
2013-08-01 01:56:00,65.8,63.4,30.05,WNW,298,0.0,0.0,92,0.00,FEW,,0.00,0.0,WeatherDisplay:10.37,2013-08-01 06:56:00,
2013-08-01 02:01:00,65.7,63.3,30.05,WNW,298,0.0,0.0,92,0.00,CLR,,0.00,0.0,WeatherDisplay:10.37,2013-08-01 07:01:00,
2013-08-01 02:06:00,65.6,63.2,30.05,WNW,298,0.0,0.0,92,0.00,CLR,,0.00,0.0,WeatherDisplay:10.37,2013-08-01 07:06:00,
2013-08-01 02:11:00,65.4,63.0,30.05,WNW,298,0.0,0.0,92,0.00,CLR,,0.00,0.0,WeatherDisplay:10.37,2013-08-01 07:11:00,
2013-08-01 02:16:00,65.4,63.0,30.05,WNW,298,0.0,0.0,92,0.00,CLR,,0.00,0.0,WeatherDisplay:10.37,2013-08-01 07:16:00,
2013-08-01 02:22:00,65.4,63.0,30.05,WNW,298,0.0,0.0,92,0.00,CLR,,0.00,0.0,WeatherDisplay:10.37,2013-08-01 07:22:00,
2013-08-01 02:27:00,65.2,63.1,30.05,WNW,298,0.0,0.0,93,0.00,CLR,,0.00,0.0,WeatherDisplay:10.37,2013-08-01 07:27:00,
2013-08-01 02:32:00,64.9,62.9,30.05,WNW,298,0.0,0.0,93,0.00,CLR,CLR,0.00,0.0,WeatherDisplay:10.37,2013-08-01 07:32:00,
2013-08-01 02:37:00,64.8,62.7,30.05,WNW,298,0.0,0.0,93,0.00,CLR,,0.00,0.0,WeatherDisplay:10.37,2013-08-01 07:37:00,
2013-08-01 02:42:00,64.6,62.8,30.05,WNW,298,0.0,0.0,94,0.00,CLR,,0.00,0.0,WeatherDisplay:10.37,2013-08-01 07:42:00,
2013-08-01 02:48:00,64.8,63.0,30.05,WNW,298,0.0,0.0,94,0.00,CLR,,0.00,0.0,WeatherDisplay:10.37,2013-08-01 07:48:00,
2013-08-01 02:53:00,64.9,62.8,30.05,WNW,298,0.0,0.0,93,0.00,CLR,,0.00,0.0,WeatherDisplay:10.37,2013-08-01 07:53:00,
2013-08-01 02:58:00,64.7,62.6,30.05,WNW,298,0.0,0.0,93,0.00,CLR,,0.00,0.0,WeatherDisplay:10.37,2013-08-01 07:58:00,
2013-08-01 03:03:00,64.5,62.4,30.05,WNW,298,0.0,0.0,93,0.00,CLR,,0.00,0.0,WeatherDisplay:10.37,2013-08-01 08:03:00,
2013-08-01 03:08:00,64.4,62.3,30.05,WNW,298,0.0,0.0,93,0.00,CLR,,0.00,0.0,WeatherDisplay:10.37,2013-08-01 08:08:00,
2013-08-01 03:15:00,64.0,62.2,30.05,WNW,298,0.0,0.0,94,0.00,CLR,,0.00,0.0,WeatherDisplay:10.37,2013-08-01 08:15:00,
2013-08-01 03:20:00,63.8,62.0,30.05,WNW,298,0.0,0.0,94,0.00,CLR,,0.00,0.0,WeatherDisplay:10.37,2013-08-01 08:20:00,
2013-08-01 03:26:00,63.8,62.0,30.06,WNW,298,0.0,0.0,94,0.00,CLR,,0.00,0.0,WeatherDisplay:10.37,2013-08-01 08:26:00,
2013-08-01 03:31:00,63.7,61.9,30.06,WNW,298,0.0,0.0,94,0.00,CLR,,0.00,0.0,WeatherDisplay:10.37,2013-08-01 08:31:00,
2013-08-01 03:37:00,63.7,61.9,30.06,WNW,298,0.0,0.0,94,0.00,CLR,CLR,0.00,0.0,WeatherDisplay:10.37,2013-08-01 08:37:00,
2013-08-01 03:42:00,63.6,61.8,30.05,WNW,298,0.0,0.0,94,0.00,CLR,CLR,0.00,0.0,WeatherDisplay:10.37,2013-08-01 08:42:00,
2013-08-01 03:47:00,63.4,61.6,30.05,WNW,298,0.0,0.0,94,0.00,CLR,CLR,0.00,0.0,WeatherDisplay:10.37,2013-08-01 08:47:00,
2013-08-01 03:52:00,63.2,61.4,30.05,WNW,298,0.0,0.0,94,0.00,CLR,CLR,0.00,0.0,WeatherDisplay:10.37,2013-08-01 08:52:00,
2013-08-01 03:59:00,62.9,61.4,30.05,WNW,298,0.0,0.0,95,0.00,CLR,,0.00,0.0,WeatherDisplay:10.37,2013-08-01 08:59:00,
2013-08-01 04:04:00,63.0,61.5,30.05,WNW,298,0.0,0.0,95,0.00,CLR,,0.00,0.0,WeatherDisplay:10.37,2013-08-01 09:04:00,
2013-08-01 04:10:00,62.7,61.2,30.05,WNW,298,0.0,0.0,95,0.00,CLR,,0.00,0.0,WeatherDisplay:10.37,2013-08-01 09:10:00,
2013-08-01 04:15:00,62.4,60.9,30.05,WNW,298,0.0,0.0,95,0.00,CLR,,0.00,0.0,WeatherDisplay:10.37,2013-08-01 09:15:00,
2013-08-01 04:21:00,62.3,60.8,30.05,WNW,298,0.0,0.0,95,0.00,CLR,,0.00,0.0,WeatherDisplay:10.37,2013-08-01 09:21:00,
2013-08-01 04:26:00,62.2,61.0,30.05,WNW,298,0.0,0.0,96,0.00,CLR,,0.00,0.0,WeatherDisplay:10.37,2013-08-01 09:26:00,
2013-08-01 04:32:00,62.0,60.8,30.05,WNW,298,0.0,0.0,96,0.00,CLR,,0.00,0.0,WeatherDisplay:10.37,2013-08-01 09:32:00,
2013-08-01 04:38:00,61.8,60.6,30.05,WNW,298,0.0,0.0,96,0.00,CLR,,0.00,0.0,WeatherDisplay:10.37,2013-08-01 09:38:00,
2013-08-01 04:43:00,61.7,60.5,30.05,WNW,298,0.0,0.0,96,0.00,CLR,,0.00,0.0,WeatherDisplay:10.37,2013-08-01 09:43:00,
2013-08-01 04:49:00,61.7,60.5,30.05,WNW,298,0.0,0.0,96,0.00,CLR,,0.00,0.0,WeatherDisplay:10.37,2013-08-01 09:49:00,
2013-08-01 04:54:00,61.6,60.4,30.05,WNW,298,0.0,0.0,96,0.00,CLR,,0.00,0.0,WeatherDisplay:10.37,2013-08-01 09:54:00,
2013-08-01 05:00:00,61.5,60.3,30.05,WNW,298,0.0,0.0,96,0.00,CLR,,0.00,0.0,WeatherDisplay:10.37,2013-08-01 10:00:00,
2013-08-01 05:05:00,61.4,60.2,30.05,WNW,298,0.0,0.0,96,0.00,CLR,,0.00,0.0,WeatherDisplay:10.37,2013-08-01 10:05:00,
2013-08-01 05:10:00,61.4,60.2,30.05,WNW,298,0.0,0.0,96,0.00,CLR,,0.00,0.0,WeatherDisplay:10.37,2013-08-01 10:10:00,
2013-08-01 05:17:00,61.3,60.2,30.05,WNW,298,0.0,0.0,96,0.00,CLR,CLR,0.00,0.0,WeatherDisplay:10.37,2013-08-01 10:17:00,
2013-08-01 05:22:00,61.3,60.2,30.05,WNW,298,0.0,0.0,96,0.00,CLR,,0.00,0.0,WeatherDisplay:10.37,2013-08-01 10:22:00,
2013-08-01 05:28:00,61.3,60.2,30.05,WNW,298,0.0,0.0,96,0.00,CLR,,0.00,0.0,WeatherDisplay:10.37,2013-08-01 10:28:00,
2013-08-01 05:34:00,61.2,60.1,30.05,WNW,298,0.0,0.0,96,0.00,CLR,,0.00,0.0,WeatherDisplay:10.37,2013-08-01 10:34:00,
2013-08-01 05:41:00,61.2,60.1,30.05,WNW,298,0.0,0.0,96,0.00,CLR,,0.00,0.0,WeatherDisplay:10.37,2013-08-01 10:41:00,
2013-08-01 05:46:00,61.2,60.1,30.05,WNW,298,0.0,0.0,96,0.00,CLR,,0.00,0.0,WeatherDisplay:10.37,2013-08-01 10:46:00,
2013-08-01 05:51:00,61.2,60.1,30.05,WNW,298,0.0,0.0,96,0.00,CLR,,0.00,0.0,WeatherDisplay:10.37,2013-08-01 10:51:00,
2013-08-01 05:57:00,61.1,60.0,30.05,WNW,298,0.0,0.0,96,0.00,CLR,,0.00,0.0,WeatherDisplay:10.37,2013-08-01 10:57:00,
2013-08-01 06:02:00,60.9,59.8,30.05,WNW,298,0.0,0.0,96,0.00,FEW,FEW,0.00,0.0,WeatherDisplay:10.37,2013-08-01 11:02:00,
2013-08-01 06:07:00,60.7,59.6,30.06,WNW,298,0.0,0.0,96,0.00,FEW,,0.00,0.0,WeatherDisplay:10.37,2013-08-01 11:07:00,
2013-08-01 06:12:00,60.7,59.6,30.06,WNW,298,0.0,0.0,96,0.00,FEW,,0.00,0.0,WeatherDisplay:10.37,2013-08-01 11:12:00,
2013-08-01 06:18:00,60.5,59.4,30.06,WNW,298,0.0,0.0,96,0.00,FEW,,0.00,5.0,WeatherDisplay:10.37,2013-08-01 11:18:00,
2013-08-01 06:23:00,60.4,59.3,30.07,WNW,298,1.7,2.3,96,0.00,FEW,,0.00,7.0,WeatherDisplay:10.37,2013-08-01 11:23:00,
2013-08-01 06:28:00,60.6,59.7,30.07,WNW,298,0.0,0.0,97,0.00,FEW,,0.00,9.0,WeatherDisplay:10.37,2013-08-01 11:28:00,
2013-08-01 06:34:00,61.0,60.1,30.07,WNW,298,0.0,0.0,97,0.00,FEW,,0.00,12.0,WeatherDisplay:10.37,2013-08-01 11:34:00,
2013-08-01 06:39:00,61.3,60.4,30.07,WNW,298,0.0,0.0,97,0.00,FEW,,0.00,14.0,WeatherDisplay:10.37,2013-08-01 11:39:00,
2013-08-01 06:44:00,61.6,60.4,30.07,WNW,298,0.0,0.0,96,0.00,FEW,,0.00,18.0,WeatherDisplay:10.37,2013-08-01 11:44:00,
2013-08-01 06:50:00,61.6,60.4,30.07,WNW,298,0.0,0.0,96,0.00,FEW,,0.00,19.0,WeatherDisplay:10.37,2013-08-01 11:50:00,
2013-08-01 06:55:00,61.8,60.6,30.06,WNW,298,0.0,0.0,96,0.00,FEW,,0.00,23.0,WeatherDisplay:10.37,2013-08-01 11:55:00,
2013-08-01 07:01:00,62.0,60.6,30.06,WNW,298,0.0,0.0,95,0.00,CLR,,0.00,26.0,WeatherDisplay:10.37,2013-08-01 12:01:00,
2013-08-01 07:06:00,62.0,60.6,30.07,WNW,298,0.0,0.0,95,0.00,CLR,,0.00,39.0,WeatherDisplay:10.37,2013-08-01 12:06:00,
2013-08-01 07:12:00,62.2,60.8,30.07,WNW,298,0.0,0.0,95,0.00,CLR,,0.00,33.0,WeatherDisplay:10.37,2013-08-01 12:12:00,
2013-08-01 07:17:00,62.6,61.1,30.07,WNW,298,0.0,0.0,95,0.00,CLR,,0.00,47.0,WeatherDisplay:10.37,2013-08-01 12:17:00,
2013-08-01 07:22:00,63.0,61.2,30.07,WNW,298,0.0,0.0,94,0.00,CLR,CLR,0.00,33.0,WeatherDisplay:10.37,2013-08-01 12:22:00,
2013-08-01 07:27:00,63.4,61.3,30.07,WNW,298,0.0,0.0,93,0.00,CLR,CLR,0.00,35.0,WeatherDisplay:10.37,2013-08-01 12:27:00,
2013-08-01 07:32:00,63.8,62.0,30.07,WNW,298,0.0,0.0,94,0.00,CLR,,0.00,37.0,WeatherDisplay:10.37,2013-08-01 12:32:00,
2013-08-01 07:38:00,64.3,61.9,30.07,WNW,298,0.0,0.0,92,0.00,CLR,,0.00,42.0,WeatherDisplay:10.37,2013-08-01 12:38:00,
2013-08-01 07:44:00,64.8,62.1,30.08,WNW,298,0.0,1.0,91,0.00,CLR,,0.00,39.0,WeatherDisplay:10.37,2013-08-01 12:44:00,
2013-08-01 07:49:00,65.2,61.9,30.08,WNW,298,0.0,0.0,89,0.00,CLR,,0.00,47.0,WeatherDisplay:10.37,2013-08-01 12:49:00,
2013-08-01 07:54:00,65.6,61.6,30.07,West,281,0.0,0.0,87,0.00,CLR,,0.00,44.0,WeatherDisplay:10.37,2013-08-01 12:54:00,
2013-08-01 08:00:00,66.1,62.1,30.07,West,281,0.0,0.0,87,0.00,CLR,,0.00,46.0,WeatherDisplay:10.37,2013-08-01 13:00:00,
2013-08-01 08:05:00,66.4,62.4,30.08,West,281,0.0,0.0,87,0.00,FEW,,0.00,47.0,WeatherDisplay:10.37,2013-08-01 13:05:00,
2013-08-01 08:11:00,67.2,62.2,30.07,West,281,0.8,2.3,84,0.00,FEW,,0.00,46.0,WeatherDisplay:10.37,2013-08-01 13:11:00,
2013-08-01 08:16:00,67.8,62.8,30.08,West,281,0.0,0.0,84,0.00,FEW,,0.00,46.0,WeatherDisplay:10.37,2013-08-01 13:16:00,
2013-08-01 08:22:00,68.3,62.6,30.08,West,281,0.3,2.3,82,0.00,FEW,,0.00,47.0,WeatherDisplay:10.37,2013-08-01 13:22:00,
2013-08-01 08:29:00,68.6,62.5,30.08,NW,313,0.0,1.2,81,0.00,FEW,,0.00,49.0,WeatherDisplay:10.37,2013-08-01 13:29:00,
2013-08-01 08:35:00,69.0,62.9,30.08,NW,313,0.0,0.0,81,0.00,FEW,,0.00,51.0,WeatherDisplay:10.37,2013-08-01 13:35:00,
2013-08-01 08:40:00,69.3,62.9,30.08,WSW,237,0.1,1.2,80,0.00,FEW,,0.00,51.0,WeatherDisplay:10.37,2013-08-01 13:40:00,
2013-08-01 08:45:00,69.7,62.9,30.08,WSW,237,0.0,0.0,79,0.00,FEW,,0.00,53.0,WeatherDisplay:10.37,2013-08-01 13:45:00,
2013-08-01 08:52:00,70.4,63.2,30.08,WSW,237,0.0,0.0,78,0.00,FEW,,0.00,53.0,WeatherDisplay:10.37,2013-08-01 13:52:00,
2013-08-01 08:57:00,70.8,63.6,30.08,WSW,237,0.0,2.0,78,0.00,FEW,FEW,0.00,53.0,WeatherDisplay:10.37,2013-08-01 13:57:00,
2013-08-01 09:02:00,71.5,64.3,30.07,WNW,285,0.0,0.0,78,0.00,FEW,,0.00,53.0,WeatherDisplay:10.37,2013-08-01 14:02:00,
2013-08-01 09:07:00,71.4,63.4,30.07,WNW,285,0.0,0.0,76,0.00,FEW,,0.00,54.0,WeatherDisplay:10.37,2013-08-01 14:07:00,
2013-08-01 09:12:00,71.6,63.6,30.07,WNW,285,0.0,0.0,76,0.00,FEW,,0.00,54.0,WeatherDisplay:10.37,2013-08-01 14:12:00,
2013-08-01 09:18:00,72.2,63.8,30.07,WNW,285,0.0,1.2,75,0.00,FEW,,0.00,56.0,WeatherDisplay:10.37,2013-08-01 14:18:00,
2013-08-01 09:23:00,72.4,63.6,30.07,WNW,285,0.0,0.0,74,0.00,FEW,,0.00,58.0,WeatherDisplay:10.37,2013-08-01 14:23:00,
2013-08-01 09:28:00,72.9,63.7,30.07,WNW,285,0.0,1.2,73,0.00,FEW,,0.00,60.0,WeatherDisplay:10.37,2013-08-01 14:28:00,
2013-08-01 09:33:00,73.6,63.6,30.07,WNW,286,0.1,1.2,71,0.00,FEW,,0.00,62.0,WeatherDisplay:10.37,2013-08-01 14:33:00,
2013-08-01 09:39:00,74.2,63.4,30.07,WNW,286,0.1,0.0,69,0.00,FEW,,0.00,86.0,WeatherDisplay:10.37,2013-08-01 14:39:00,
2013-08-01 09:44:00,74.5,63.7,30.07,WNW,286,0.0,0.0,69,0.00,FEW,,0.00,63.0,WeatherDisplay:10.37,2013-08-01 14:44:00,
2013-08-01 09:50:00,74.4,64.0,30.07,WNW,286,0.0,0.0,70,0.00,FEW,,0.00,63.0,WeatherDisplay:10.37,2013-08-01 14:50:00,
2013-08-01 09:56:00,75.1,61.6,30.07,WNW,286,0.0,1.2,63,0.00,FEW,,0.00,63.0,WeatherDisplay:10.37,2013-08-01 14:56:00,
2013-08-01 10:01:00,75.1,62.1,30.07,South,169,0.0,0.0,64,0.00,FEW,,0.00,65.0,WeatherDisplay:10.37,2013-08-01 15:01:00,
2013-08-01 10:07:00,75.3,62.3,30.07,South,172,0.0,1.0,64,0.00,FEW,FEW,0.00,69.0,WeatherDisplay:10.37,2013-08-01 15:07:00,
2013-08-01 10:12:00,75.3,62.3,30.07,WSW,244,0.0,0.0,64,0.00,FEW,FEW,0.00,76.0,WeatherDisplay:10.37,2013-08-01 15:12:00,
2013-08-01 10:17:00,75.8,63.6,30.07,West,263,0.0,2.0,66,0.00,FEW,FEW,0.00,95.0,WeatherDisplay:10.37,2013-08-01 15:17:00,
2013-08-01 10:22:00,76.3,61.9,30.07,West,279,0.3,2.3,61,0.00,FEW,,0.00,120.0,WeatherDisplay:10.37,2013-08-01 15:22:00,
2013-08-01 10:28:00,76.8,62.8,30.07,NW,306,0.0,3.5,62,0.00,FEW,,0.00,109.0,WeatherDisplay:10.37,2013-08-01 15:28:00,
2013-08-01 10:33:00,77.5,62.0,30.07,NW,318,0.3,2.3,59,0.00,FEW,,0.00,97.0,WeatherDisplay:10.37,2013-08-01 15:33:00,
2013-08-01 10:38:00,77.9,61.9,30.06,WNW,293,0.9,3.5,58,0.00,FEW,,0.00,691.0,WeatherDisplay:10.37,2013-08-01 15:38:00,
2013-08-01 10:45:00,78.2,61.7,30.07,NW,319,0.0,2.3,57,0.00,FEW,,0.00,91.0,WeatherDisplay:10.37,2013-08-01 15:45:00,
2013-08-01 10:50:00,78.2,62.7,30.06,WSW,252,0.2,1.2,59,0.00,FEW,,0.00,181.0,WeatherDisplay:10.37,2013-08-01 15:50:00,
2013-08-01 10:56:00,78.7,63.6,30.06,ESE,121,0.0,3.5,60,0.00,FEW,,0.00,97.0,WeatherDisplay:10.37,2013-08-01 15:56:00,
2013-08-01 11:02:00,78.7,62.2,30.06,SE,126,0.0,1.0,57,0.00,FEW,FEW,0.00,791.0,WeatherDisplay:10.37,2013-08-01 16:02:00,
2013-08-01 11:07:00,79.3,63.2,30.06,ESE,113,0.0,1.0,58,0.00,FEW,,0.00,807.0,WeatherDisplay:10.37,2013-08-01 16:07:00,
2013-08-01 11:13:00,80.1,63.0,30.06,SE,141,0.0,1.2,56,0.00,FEW,,0.00,824.0,WeatherDisplay:10.37,2013-08-01 16:13:00,
2013-08-01 11:18:00,79.6,60.4,30.06,SSE,155,1.8,3.5,52,0.00,FEW,,0.00,835.0,WeatherDisplay:10.37,2013-08-01 16:18:00,
2013-08-01 11:23:00,79.9,62.8,30.06,WNW,288,0.0,0.0,56,0.00,FEW,,0.00,842.0,WeatherDisplay:10.37,2013-08-01 16:23:00,
2013-08-01 11:29:00,80.9,63.7,30.06,East,86,0.0,1.2,56,0.00,FEW,,0.00,854.0,WeatherDisplay:10.37,2013-08-01 16:29:00,
2013-08-01 11:37:00,81.3,62.5,30.05,NW,315,0.0,4.0,53,0.00,FEW,,0.00,877.0,WeatherDisplay:10.37,2013-08-01 16:37:00,
2013-08-01 11:42:00,81.4,62.6,30.05,WSW,237,1.0,6.0,53,0.00,FEW,FEW,0.00,886.0,WeatherDisplay:10.37,2013-08-01 16:42:00,
2013-08-01 11:47:00,82.1,63.3,30.05,NW,304,0.6,3.5,53,0.00,FEW,,0.00,893.0,WeatherDisplay:10.37,2013-08-01 16:47:00,
2013-08-01 11:53:00,83.1,62.0,30.05,WNW,288,0.0,1.2,49,0.00,FEW,,0.00,904.0,WeatherDisplay:10.37,2013-08-01 16:53:00,
2013-08-01 11:58:00,82.6,62.6,30.05,WSW,240,0.1,4.0,51,0.00,FEW,,0.00,909.0,WeatherDisplay:10.37,2013-08-01 16:58:00,
2013-08-01 12:03:00,82.2,62.8,30.05,South,186,0.0,1.2,52,0.00,SCT,,0.00,914.0,WeatherDisplay:10.37,2013-08-01 17:03:00,
2013-08-01 12:10:00,81.8,61.3,30.04,SSW,202,1.4,9.2,50,0.00,SCT,,0.00,918.0,WeatherDisplay:10.37,2013-08-01 17:10:00,
2013-08-01 12:15:00,83.0,61.9,30.05,NW,309,0.5,2.3,49,0.00,SCT,,0.00,930.0,WeatherDisplay:10.37,2013-08-01 17:15:00,
2013-08-01 12:21:00,82.9,61.8,30.05,SE,124,0.8,4.0,49,0.00,SCT,,0.00,939.0,WeatherDisplay:10.37,2013-08-01 17:21:00,
2013-08-01 12:26:00,82.7,61.6,30.05,ESE,114,0.0,1.0,49,0.00,SCT,,0.00,935.0,WeatherDisplay:10.37,2013-08-01 17:26:00,
2013-08-01 12:32:00,83.2,64.3,30.05,WSW,248,1.3,4.0,53,0.00,SCT,,0.00,937.0,WeatherDisplay:10.37,2013-08-01 17:32:00,
2013-08-01 12:37:00,84.2,64.7,30.05,WSW,238,0.0,5.0,52,0.00,SCT,SCT,0.00,942.0,WeatherDisplay:10.37,2013-08-01 17:37:00,
2013-08-01 12:42:00,83.9,64.4,30.04,SW,230,0.0,2.0,52,0.00,SCT,SCT,0.00,949.0,WeatherDisplay:10.37,2013-08-01 17:42:00,
2013-08-01 12:47:00,84.3,61.9,30.04,NNE,33,0.0,1.0,47,0.00,SCT,SCT,0.00,962.0,WeatherDisplay:10.37,2013-08-01 17:47:00,
2013-08-01 12:52:00,84.3,63.1,30.04,SE,134,1.0,5.0,49,0.00,SCT,,0.00,951.0,WeatherDisplay:10.37,2013-08-01 17:52:00,
2013-08-01 12:58:00,84.2,60.6,30.04,WNW,292,0.0,10.4,45,0.00,SCT,,0.00,960.0,WeatherDisplay:10.37,2013-08-01 17:58:00,
2013-08-01 13:03:00,83.8,62.0,30.03,SSE,154,0.0,1.2,48,0.00,SCT,,0.00,949.0,WeatherDisplay:10.37,2013-08-01 18:03:00,
2013-08-01 13:09:00,84.7,62.2,30.02,SSW,192,0.0,0.0,47,0.00,SCT,,0.00,858.0,WeatherDisplay:10.37,2013-08-01 18:09:00,
2013-08-01 13:16:00,85.2,62.7,30.02,SSE,157,0.3,3.5,47,0.00,SCT,,0.00,937.0,WeatherDisplay:10.37,2013-08-01 18:16:00,
2013-08-01 13:22:00,85.3,62.8,30.02,ESE,105,0.1,2.0,47,0.00,SCT,,0.00,988.0,WeatherDisplay:10.37,2013-08-01 18:22:00,
2013-08-01 13:27:00,84.5,60.2,30.02,SSE,167,0.0,0.0,44,0.00,SCT,,0.00,963.0,WeatherDisplay:10.37,2013-08-01 18:27:00,
2013-08-01 13:32:00,85.2,58.8,30.01,SE,146,0.0,1.2,41,0.00,SCT,,0.00,983.0,WeatherDisplay:10.37,2013-08-01 18:32:00,
2013-08-01 13:38:00,85.8,62.0,30.01,East,88,0.0,0.0,45,0.00,SCT,,0.00,969.0,WeatherDisplay:10.37,2013-08-01 18:38:00,
2013-08-01 13:45:00,85.4,57.6,30.01,SSE,154,4.7,9.2,39,0.00,SCT,,0.00,962.0,WeatherDisplay:10.37,2013-08-01 18:45:00,
2013-08-01 13:50:00,85.4,61.0,30.01,SW,216,0.8,3.5,44,0.00,SCT,,0.00,958.0,WeatherDisplay:10.37,2013-08-01 18:50:00,
2013-08-01 13:56:00,86.5,62.0,30.01,South,176,1.0,3.0,44,0.00,SCT,,0.00,940.0,WeatherDisplay:10.37,2013-08-01 18:56:00,
2013-08-01 14:02:00,86.6,61.4,30.01,SE,146,0.0,4.0,43,0.00,BKN,BKN,0.00,940.0,WeatherDisplay:10.37,2013-08-01 19:02:00,
2013-08-01 14:08:00,85.7,59.3,30.00,SE,140,0.2,6.9,41,0.00,BKN,,0.00,939.0,WeatherDisplay:10.37,2013-08-01 19:08:00,
2013-08-01 14:13:00,85.9,58.8,30.00,WNW,302,1.6,3.5,40,0.00,BKN,,0.00,940.0,WeatherDisplay:10.37,2013-08-01 19:13:00,
2013-08-01 14:19:00,86.5,59.3,30.00,SW,224,1.0,3.5,40,0.00,BKN,,0.00,932.0,WeatherDisplay:10.37,2013-08-01 19:19:00,
2013-08-01 14:25:00,86.3,57.0,30.00,WNW,299,0.0,0.0,37,0.00,BKN,,0.00,926.0,WeatherDisplay:10.37,2013-08-01 19:25:00,
2013-08-01 14:30:00,86.7,58.8,30.00,WNW,299,0.0,0.0,39,0.00,BKN,,0.00,925.0,WeatherDisplay:10.37,2013-08-01 19:30:00,
2013-08-01 14:37:00,87.1,54.5,30.00,WNW,293,2.2,5.0,33,0.00,BKN,,0.00,645.0,WeatherDisplay:10.37,2013-08-01 19:37:00,
2013-08-01 14:43:00,87.1,56.9,29.99,NNW,343,0.1,2.3,36,0.00,BKN,,0.00,879.0,WeatherDisplay:10.37,2013-08-01 19:43:00,
2013-08-01 14:49:00,87.7,56.7,29.99,SSW,192,0.0,1.2,35,0.00,BKN,,0.00,601.0,WeatherDisplay:10.37,2013-08-01 19:49:00,
2013-08-01 14:54:00,87.6,55.8,29.99,NW,313,0.0,1.2,34,0.00,BKN,,0.00,918.0,WeatherDisplay:10.37,2013-08-01 19:54:00,
2013-08-01 14:59:00,87.2,54.6,29.98,NW,306,0.8,3.5,33,0.00,BKN,,0.00,909.0,WeatherDisplay:10.37,2013-08-01 19:59:00,
2013-08-01 15:06:00,86.2,55.3,29.98,NNE,28,1.7,4.0,35,0.00,SCT,,0.00,888.0,WeatherDisplay:10.37,2013-08-01 20:06:00,
2013-08-01 15:11:00,87.5,58.0,29.98,WNW,294,0.1,1.2,37,0.00,SCT,,0.00,865.0,WeatherDisplay:10.37,2013-08-01 20:11:00,
2013-08-01 15:17:00,87.6,54.9,29.97,West,279,0.3,5.8,33,0.00,SCT,,0.00,851.0,WeatherDisplay:10.37,2013-08-01 20:17:00,
2013-08-01 15:22:00,87.0,55.2,29.97,NW,314,1.0,3.0,34,0.00,SCT,SCT,0.00,837.0,WeatherDisplay:10.37,2013-08-01 20:22:00,
2013-08-01 15:27:00,87.4,56.4,29.97,NNW,348,0.0,1.0,35,0.00,SCT,SCT,0.00,828.0,WeatherDisplay:10.37,2013-08-01 20:27:00,
2013-08-01 15:32:00,87.9,57.6,29.96,NNE,25,1.0,6.0,36,0.00,SCT,SCT,0.00,821.0,WeatherDisplay:10.37,2013-08-01 20:32:00,
2013-08-01 15:37:00,87.2,58.5,29.96,ESE,105,0.0,1.2,38,0.00,SCT,,0.00,812.0,WeatherDisplay:10.37,2013-08-01 20:37:00,
2013-08-01 15:41:00,87.2,57.8,29.96,SSW,196,0.3,2.3,37,0.00,SCT,,0.00,803.0,WeatherDisplay:10.37,2013-08-01 20:41:00,
2013-08-01 15:46:00,87.2,58.5,29.96,West,278,0.3,3.5,38,0.00,SCT,,0.00,791.0,WeatherDisplay:10.37,2013-08-01 20:46:00,
2013-08-01 15:52:00,87.8,57.5,29.96,SSE,148,0.0,1.2,36,0.00,SCT,,0.00,784.0,WeatherDisplay:10.37,2013-08-01 20:52:00,
2013-08-01 15:57:00,87.2,57.0,29.96,SSE,161,1.0,7.0,36,0.00,SCT,SCT,0.00,770.0,WeatherDisplay:10.37,2013-08-01 20:57:00,
2013-08-01 16:02:00,87.6,58.1,29.96,SE,140,0.0,8.0,37,0.00,SCT,,0.00,754.0,WeatherDisplay:10.37,2013-08-01 21:02:00,
2013-08-01 16:07:00,87.1,56.1,29.95,NNW,336,2.5,6.9,35,0.00,SCT,,0.00,742.0,WeatherDisplay:10.37,2013-08-01 21:07:00,
2013-08-01 16:12:00,86.7,56.6,29.95,SE,124,0.2,4.6,36,0.00,SCT,,0.00,714.0,WeatherDisplay:10.37,2013-08-01 21:12:00,
2013-08-01 16:18:00,87.0,59.0,29.95,SE,138,0.1,1.2,39,0.00,SCT,,0.00,666.0,WeatherDisplay:10.37,2013-08-01 21:18:00,
2013-08-01 16:23:00,86.7,58.8,29.95,SE,137,0.1,1.2,39,0.00,SCT,,0.00,519.0,WeatherDisplay:10.37,2013-08-01 21:23:00,
2013-08-01 16:28:00,86.1,57.5,29.96,SSE,159,0.0,0.0,38,0.00,SCT,,0.00,496.0,WeatherDisplay:10.37,2013-08-01 21:28:00,
2013-08-01 16:34:00,85.9,56.6,29.96,ESE,105,0.1,2.3,37,0.00,SCT,,0.00,436.0,WeatherDisplay:10.37,2013-08-01 21:34:00,
2013-08-01 16:39:00,85.8,56.5,29.96,South,187,0.4,4.0,37,0.00,SCT,,0.00,397.0,WeatherDisplay:10.37,2013-08-01 21:39:00,
2013-08-01 16:45:00,85.5,56.3,29.97,NNW,337,0.3,2.3,37,0.00,SCT,,0.00,311.0,WeatherDisplay:10.37,2013-08-01 21:45:00,
2013-08-01 16:50:00,85.1,58.8,29.96,SE,134,0.0,0.0,41,0.00,SCT,,0.00,258.0,WeatherDisplay:10.37,2013-08-01 21:50:00,
2013-08-01 16:55:00,84.5,59.5,29.96,SSE,166,0.0,0.0,43,0.00,SCT,,0.00,241.0,WeatherDisplay:10.37,2013-08-01 21:55:00,
2013-08-01 17:01:00,84.0,59.7,29.96,SE,130,0.0,0.0,44,0.00,BKN,,0.00,241.0,WeatherDisplay:10.37,2013-08-01 22:01:00,
2013-08-01 17:06:00,83.7,58.2,29.96,SE,130,0.0,0.0,42,0.00,BKN,,0.00,232.0,WeatherDisplay:10.37,2013-08-01 22:06:00,
2013-08-01 17:12:00,83.5,59.9,29.95,SE,130,0.0,0.0,45,0.00,BKN,,0.00,218.0,WeatherDisplay:10.37,2013-08-01 22:12:00,
2013-08-01 17:17:00,83.4,58.6,29.95,SE,142,2.0,5.0,43,0.00,BKN,BKN,0.00,211.0,WeatherDisplay:10.37,2013-08-01 22:17:00,
2013-08-01 17:22:00,83.3,61.6,29.95,South,183,0.0,0.0,48,0.00,BKN,,0.00,202.0,WeatherDisplay:10.37,2013-08-01 22:22:00,
2013-08-01 17:27:00,82.5,62.0,29.95,South,183,0.0,0.0,50,0.00,BKN,,0.00,165.0,WeatherDisplay:10.37,2013-08-01 22:27:00,
2013-08-01 17:33:00,82.3,60.1,29.95,South,182,0.0,1.2,47,0.00,BKN,,0.00,155.0,WeatherDisplay:10.37,2013-08-01 22:33:00,
2013-08-01 17:38:00,82.5,61.4,29.95,SE,131,0.3,0.0,49,0.00,BKN,,0.00,162.0,WeatherDisplay:10.37,2013-08-01 22:38:00,
2013-08-01 17:43:00,81.7,61.8,29.95,SE,131,0.0,0.0,51,0.00,BKN,,0.00,146.0,WeatherDisplay:10.37,2013-08-01 22:43:00,
2013-08-01 17:48:00,81.9,61.4,29.95,SE,134,0.9,5.8,50,0.00,BKN,,0.00,141.0,WeatherDisplay:10.37,2013-08-01 22:48:00,
2013-08-01 17:54:00,81.8,62.5,29.95,SSE,150,0.0,1.0,52,0.00,BKN,,0.00,139.0,WeatherDisplay:10.37,2013-08-01 22:54:00,
2013-08-01 17:59:00,81.8,61.3,29.94,SSE,165,1.6,4.0,50,0.00,BKN,,0.00,137.0,WeatherDisplay:10.37,2013-08-01 22:59:00,
2013-08-01 18:04:00,81.7,63.4,29.94,SSE,165,0.0,0.0,54,0.00,OVC,,0.00,127.0,WeatherDisplay:10.37,2013-08-01 23:04:00,
2013-08-01 18:09:00,81.6,62.8,29.94,SSE,156,0.0,2.3,53,0.00,OVC,,0.00,116.0,WeatherDisplay:10.37,2013-08-01 23:09:00,
2013-08-01 18:15:00,81.3,63.1,29.95,SSE,165,0.0,0.0,54,0.00,OVC,,0.00,100.0,WeatherDisplay:10.37,2013-08-01 23:15:00,
2013-08-01 18:20:00,80.8,64.1,29.95,SSE,165,0.0,0.0,57,0.00,OVC,,0.00,98.0,WeatherDisplay:10.37,2013-08-01 23:20:00,
2013-08-01 18:25:00,80.8,64.6,29.94,SSE,165,0.0,0.0,58,0.00,OVC,,0.00,98.0,WeatherDisplay:10.37,2013-08-01 23:25:00,
2013-08-01 18:31:00,80.8,64.1,29.94,SSE,166,0.0,0.0,57,0.00,OVC,,0.00,93.0,WeatherDisplay:10.37,2013-08-01 23:31:00,
2013-08-01 18:37:00,80.8,65.1,29.94,South,170,0.0,0.0,59,0.00,OVC,,0.00,81.0,WeatherDisplay:10.37,2013-08-01 23:37:00,
2013-08-01 18:42:00,80.3,64.7,29.93,South,170,0.0,0.0,59,0.00,OVC,,0.00,72.0,WeatherDisplay:10.37,2013-08-01 23:42:00,
2013-08-01 18:47:00,80.1,64.9,29.93,South,170,0.0,0.0,60,0.00,OVC,OVC,0.00,60.0,WeatherDisplay:10.37,2013-08-01 23:47:00,
2013-08-01 18:52:00,80.1,65.0,29.92,South,170,0.0,0.0,60,0.00,OVC,,0.00,49.0,WeatherDisplay:10.37,2013-08-01 23:52:00,
2013-08-01 18:57:00,79.9,65.2,29.92,South,190,0.0,1.2,61,0.00,OVC,,0.00,46.0,WeatherDisplay:10.37,2013-08-01 23:57:00,
2013-08-01 19:03:00,79.7,65.5,29.92,ENE,68,0.1,1.2,62,0.00,OVC,,0.00,47.0,WeatherDisplay:10.37,2013-08-02 00:03:00,
2013-08-01 19:08:00,79.6,65.9,29.92,SSE,159,0.0,0.0,63,0.00,OVC,,0.00,42.0,WeatherDisplay:10.37,2013-08-02 00:08:00,
2013-08-01 19:13:00,79.5,65.8,29.93,SSE,159,0.1,1.2,63,0.00,OVC,,0.00,35.0,WeatherDisplay:10.37,2013-08-02 00:13:00,
2013-08-01 19:19:00,79.2,65.5,29.93,SSE,159,0.0,0.0,63,0.00,OVC,,0.00,33.0,WeatherDisplay:10.37,2013-08-02 00:19:00,
2013-08-01 19:24:00,79.1,65.9,29.93,SSE,159,0.0,0.0,64,0.00,OVC,,0.00,28.0,WeatherDisplay:10.37,2013-08-02 00:24:00,
2013-08-01 19:29:00,79.1,65.9,29.93,SSE,152,0.0,0.0,64,0.00,OVC,,0.00,25.0,WeatherDisplay:10.37,2013-08-02 00:29:00,
2013-08-01 19:34:00,79.0,65.3,29.93,SSE,157,0.7,2.3,63,0.00,OVC,,0.00,25.0,WeatherDisplay:10.37,2013-08-02 00:34:00,
2013-08-01 19:40:00,79.0,66.7,29.92,SSE,157,0.0,0.0,66,0.00,OVC,,0.00,23.0,WeatherDisplay:10.37,2013-08-02 00:40:00,
2013-08-01 19:46:00,78.8,66.0,29.92,SSE,157,0.0,1.2,65,0.00,OVC,,0.00,21.0,WeatherDisplay:10.37,2013-08-02 00:46:00,
2013-08-01 19:51:00,78.5,65.8,29.92,South,169,0.1,1.0,65,0.00,OVC,,0.00,21.0,WeatherDisplay:10.37,2013-08-02 00:51:00,
2013-08-01 19:57:00,78.3,66.0,29.92,South,170,0.0,0.0,66,0.00,OVC,,0.00,19.0,WeatherDisplay:10.37,2013-08-02 00:57:00,
2013-08-01 20:02:00,78.0,66.2,29.91,SSE,162,0.0,1.2,67,0.00,OVC,,0.00,16.0,WeatherDisplay:10.37,2013-08-02 01:02:00,
2013-08-01 20:08:00,77.9,66.5,29.91,SSE,162,0.0,0.0,68,0.00,OVC,,0.00,18.0,WeatherDisplay:10.37,2013-08-02 01:08:00,
2013-08-01 20:13:00,77.8,66.0,29.92,SSE,162,0.0,0.0,67,0.00,OVC,,0.00,18.0,WeatherDisplay:10.37,2013-08-02 01:13:00,
2013-08-01 20:19:00,77.8,66.0,29.91,SSE,162,0.0,0.0,67,0.00,OVC,,0.00,11.0,WeatherDisplay:10.37,2013-08-02 01:19:00,
2013-08-01 20:25:00,77.2,65.8,29.91,SSE,162,0.0,0.0,68,0.00,OVC,,0.00,5.0,WeatherDisplay:10.37,2013-08-02 01:25:00,
2013-08-01 20:30:00,77.1,65.7,29.91,SSE,155,0.1,1.2,68,0.00,OVC,,0.00,0.0,WeatherDisplay:10.37,2013-08-02 01:30:00,
2013-08-01 20:35:00,76.9,66.0,29.90,SSE,155,0.0,0.0,69,0.00,OVC,,0.00,0.0,WeatherDisplay:10.37,2013-08-02 01:35:00,
2013-08-01 20:41:00,76.9,66.0,29.90,SSE,155,0.0,0.0,69,0.00,OVC,,0.00,0.0,WeatherDisplay:10.37,2013-08-02 01:41:00,
2013-08-01 20:46:00,76.8,65.9,29.90,SSE,155,0.0,0.0,69,0.00,OVC,,0.00,0.0,WeatherDisplay:10.37,2013-08-02 01:46:00,
2013-08-01 20:51:00,76.9,66.0,29.90,SSE,155,0.0,0.0,69,0.00,OVC,,0.00,0.0,WeatherDisplay:10.37,2013-08-02 01:51:00,
2013-08-01 20:56:00,76.7,66.2,29.90,SSE,155,0.0,0.0,70,0.00,OVC,,0.00,0.0,WeatherDisplay:10.37,2013-08-02 01:56:00,
2013-08-01 21:02:00,76.2,66.1,29.91,SSE,155,0.0,0.0,71,0.00,BKN,,0.00,0.0,WeatherDisplay:10.37,2013-08-02 02:02:00,
2013-08-01 21:07:00,75.6,66.3,29.90,SSE,155,0.0,0.0,73,0.00,BKN,BKN,0.00,0.0,WeatherDisplay:10.37,2013-08-02 02:07:00,
2013-08-01 21:12:00,75.2,65.9,29.90,SSE,155,0.0,0.0,73,0.00,BKN,BKN,0.00,0.0,WeatherDisplay:10.37,2013-08-02 02:12:00,
2013-08-01 21:17:00,75.2,65.6,29.91,SSE,155,0.0,0.0,72,0.00,BKN,,0.00,0.0,WeatherDisplay:10.37,2013-08-02 02:17:00,
2013-08-01 21:23:00,75.0,65.8,29.91,SSE,155,0.0,0.0,73,0.00,BKN,,0.00,0.0,WeatherDisplay:10.37,2013-08-02 02:23:00,
2013-08-01 21:28:00,74.6,65.0,29.91,SSE,155,0.0,0.0,72,0.00,BKN,,0.00,0.0,WeatherDisplay:10.37,2013-08-02 02:28:00,
2013-08-01 21:33:00,74.3,65.1,29.92,SSE,155,0.0,0.0,73,0.00,BKN,,0.00,0.0,WeatherDisplay:10.37,2013-08-02 02:33:00,
2013-08-01 21:38:00,74.1,65.3,29.92,SSE,155,0.0,0.0,74,0.00,BKN,,0.00,0.0,WeatherDisplay:10.37,2013-08-02 02:38:00,
2013-08-01 21:44:00,73.8,65.0,29.92,SSE,155,0.0,0.0,74,0.00,BKN,,0.00,0.0,WeatherDisplay:10.37,2013-08-02 02:44:00,
2013-08-01 21:49:00,73.5,65.1,29.92,SSE,155,0.0,0.0,75,0.00,BKN,,0.00,0.0,WeatherDisplay:10.37,2013-08-02 02:49:00,
2013-08-01 21:54:00,73.3,65.3,29.92,SSE,155,0.0,0.0,76,0.00,BKN,,0.00,0.0,WeatherDisplay:10.37,2013-08-02 02:54:00,
2013-08-01 21:59:00,73.3,65.3,29.91,SSE,155,0.0,0.0,76,0.00,BKN,,0.00,0.0,WeatherDisplay:10.37,2013-08-02 02:59:00,
2013-08-01 22:05:00,73.4,65.4,29.91,SSE,155,0.0,0.0,76,0.00,BKN,,0.00,0.0,WeatherDisplay:10.37,2013-08-02 03:05:00,
2013-08-01 22:10:00,73.2,65.2,29.92,SSE,155,0.0,0.0,76,0.00,BKN,,0.00,0.0,WeatherDisplay:10.37,2013-08-02 03:10:00,
2013-08-01 22:15:00,73.4,65.4,29.92,SSE,155,0.0,0.0,76,0.00,BKN,,0.00,0.0,WeatherDisplay:10.37,2013-08-02 03:15:00,
2013-08-01 22:21:00,73.3,65.3,29.91,SSE,155,0.0,0.0,76,0.00,BKN,,0.00,0.0,WeatherDisplay:10.37,2013-08-02 03:21:00,
2013-08-01 22:26:00,73.1,65.1,29.90,SSE,155,0.0,0.0,76,0.00,BKN,,0.00,0.0,WeatherDisplay:10.37,2013-08-02 03:26:00,
2013-08-01 22:32:00,73.1,65.1,29.91,SSE,155,0.0,0.0,76,0.00,BKN,,0.00,0.0,WeatherDisplay:10.37,2013-08-02 03:32:00,
2013-08-01 22:37:00,72.8,65.2,29.91,SSE,155,0.0,0.0,77,0.00,BKN,,0.00,0.0,WeatherDisplay:10.37,2013-08-02 03:37:00,
2013-08-01 22:42:00,72.6,65.3,29.90,SSE,155,0.0,0.0,78,0.00,BKN,,0.00,0.0,WeatherDisplay:10.37,2013-08-02 03:42:00,
2013-08-01 22:47:00,72.4,65.2,29.90,SSE,155,0.0,0.0,78,0.00,BKN,,0.00,0.0,WeatherDisplay:10.37,2013-08-02 03:47:00,
2013-08-01 22:52:00,72.2,65.0,29.90,SSE,155,0.0,0.0,78,0.00,BKN,,0.00,0.0,WeatherDisplay:10.37,2013-08-02 03:52:00,
2013-08-01 22:58:00,72.1,64.9,29.90,SSE,155,0.0,0.0,78,0.00,BKN,,0.00,0.0,WeatherDisplay:10.37,2013-08-02 03:58:00,
2013-08-01 23:01:00,72.1,65.2,29.90,SSE,155,0.0,0.0,79,0.00,BKN,,0.00,0.0,WeatherDisplay:10.37,2013-08-02 04:01:00,
2013-08-01 23:02:00,72.1,65.2,29.90,SSE,155,0.0,0.0,79,0.00,BKN,,0.00,0.0,WeatherDisplay:10.37,2013-08-02 04:02:00,
2013-08-01 23:04:00,72.0,65.1,29.90,SSE,155,0.0,0.0,79,0.00,BKN,,0.00,0.0,WeatherDisplay:10.37,2013-08-02 04:04:00,
2013-08-01 23:09:00,72.1,65.2,29.90,SSE,155,0.0,0.0,79,0.00,BKN,,0.00,0.0,WeatherDisplay:10.37,2013-08-02 04:09:00,
2013-08-01 23:15:00,72.2,65.3,29.89,SSE,154,0.0,0.0,79,0.00,BKN,,0.00,0.0,WeatherDisplay:10.37,2013-08-02 04:15:00,
2013-08-01 23:16:00,72.2,65.3,29.89,SSE,155,0.0,0.0,79,0.00,BKN,,0.00,0.0,WeatherDisplay:10.37,2013-08-02 04:16:00,
2013-08-01 23:21:00,72.2,65.0,29.89,SSE,155,0.0,0.0,78,0.00,BKN,,0.00,0.0,WeatherDisplay:10.37,2013-08-02 04:21:00,
2013-08-01 23:26:00,72.2,65.0,29.90,SSE,155,0.0,0.0,78,0.00,BKN,,0.00,0.0,WeatherDisplay:10.37,2013-08-02 04:26:00,
2013-08-01 23:31:00,72.1,65.2,29.89,SSE,155,0.0,0.0,79,0.00,BKN,,0.00,0.0,WeatherDisplay:10.37,2013-08-02 04:31:00,
2013-08-01 23:37:00,72.0,65.1,29.90,SSE,155,0.0,0.0,79,0.00,BKN,,0.00,0.0,WeatherDisplay:10.37,2013-08-02 04:37:00,
2013-08-01 23:42:00,71.8,65.0,29.90,SSE,155,0.0,0.0,79,0.00,BKN,BKN,0.00,0.0,WeatherDisplay:10.37,2013-08-02 04:42:00,
2013-08-01 23:47:00,71.9,65.0,29.89,SSE,155,0.0,0.0,79,0.00,BKN,BKN,0.00,0.0,WeatherDisplay:10.37,2013-08-02 04:47:00,
2013-08-01 23:52:00,71.5,65.0,29.89,SSE,155,0.0,0.0,80,0.00,BKN,,0.00,0.0,WeatherDisplay:10.37,2013-08-02 04:52:00,
2013-08-01 23:57:00,71.2,64.7,29.89,SSE,155,0.0,0.0,80,0.00,BKN,,0.00,0.0,WeatherDisplay:10.37,2013-08-02 04:57:00,